sensor_id;sensor_type;location;lat;lon;timestamp;temperature;humidity
9033;DHT22;4551;53.164;8.210;2023-04-19T00:00:04;8.30;99.90
9033;DHT22;4551;53.164;8.210;2023-04-19T00:02:34;8.30;99.90
9033;DHT22;4551;53.164;8.210;2023-04-19T00:05:03;8.30;99.90
9033;DHT22;4551;53.164;8.210;2023-04-19T00:07:31;8.20;99.90
9033;DHT22;4551;53.164;8.210;2023-04-19T00:09:59;8.20;99.90
9033;DHT22;4551;53.164;8.210;2023-04-19T00:12:27;8.00;99.90
9033;DHT22;4551;53.164;8.210;2023-04-19T00:14:57;8.00;99.90
9033;DHT22;4551;53.164;8.210;2023-04-19T00:17:25;8.00;99.90
9033;DHT22;4551;53.164;8.210;2023-04-19T00:20:04;7.90;99.90
9033;DHT22;4551;53.164;8.210;2023-04-19T00:22:34;7.90;99.90
9033;DHT22;4551;53.164;8.210;2023-04-19T00:25:02;7.90;99.90
9033;DHT22;4551;53.164;8.210;2023-04-19T00:27:30;7.90;99.90
9033;DHT22;4551;53.164;8.210;2023-04-19T00:30:03;7.90;99.90
9033;DHT22;4551;53.164;8.210;2023-04-19T00:32:31;7.70;99.90
9033;DHT22;4551;53.164;8.210;2023-04-19T00:34:59;7.70;99.90
9033;DHT22;4551;53.164;8.210;2023-04-19T00:37:27;7.70;99.90
9033;DHT22;4551;53.164;8.210;2023-04-19T00:39:58;7.70;99.90
9033;DHT22;4551;53.164;8.210;2023-04-19T00:42:26;7.60;99.90
9033;DHT22;4551;53.164;8.210;2023-04-19T00:44:54;7.70;99.90
9033;DHT22;4551;53.164;8.210;2023-04-19T00:47:24;7.50;99.90
9033;DHT22;4551;53.164;8.210;2023-04-19T00:49:54;7.50;99.90
9033;DHT22;4551;53.164;8.210;2023-04-19T00:52:22;7.30;99.90
9033;DHT22;4551;53.164;8.210;2023-04-19T00:54:50;7.30;99.90
9033;DHT22;4551;53.164;8.210;2023-04-19T00:57:18;7.40;99.90
9033;DHT22;4551;53.164;8.210;2023-04-19T00:59:47;7.40;99.90
9033;DHT22;4551;53.164;8.210;2023-04-19T01:02:15;7.40;99.90
9033;DHT22;4551;53.164;8.210;2023-04-19T01:04:46;7.40;99.90
9033;DHT22;4551;53.164;8.210;2023-04-19T01:07:15;7.10;99.90
9033;DHT22;4551;53.164;8.210;2023-04-19T01:09:45;7.20;99.90
9033;DHT22;4551;53.164;8.210;2023-04-19T01:12:15;7.30;99.90
9033;DHT22;4551;53.164;8.210;2023-04-19T01:14:43;7.20;99.90
9033;DHT22;4551;53.164;8.210;2023-04-19T01:17:14;7.20;99.90
9033;DHT22;4551;53.164;8.210;2023-04-19T01:19:45;7.00;99.90
9033;DHT22;4551;53.164;8.210;2023-04-19T01:22:23;7.10;99.90
9033;DHT22;4551;53.164;8.210;2023-04-19T01:24:52;6.60;99.90
9033;DHT22;4551;53.164;8.210;2023-04-19T01:27:20;7.10;99.90
9033;DHT22;4551;53.164;8.210;2023-04-19T01:29:49;7.00;99.90
9033;DHT22;4551;53.164;8.210;2023-04-19T01:32:20;6.80;99.90
9033;DHT22;4551;53.164;8.210;2023-04-19T01:34:53;6.90;99.90
9033;DHT22;4551;53.164;8.210;2023-04-19T01:37:22;6.80;99.90
9033;DHT22;4551;53.164;8.210;2023-04-19T01:39:56;6.80;99.90
9033;DHT22;4551;53.164;8.210;2023-04-19T01:42:28;6.80;99.90
9033;DHT22;4551;53.164;8.210;2023-04-19T01:44:56;6.70;99.90
9033;DHT22;4551;53.164;8.210;2023-04-19T01:47:33;6.70;99.90
9033;DHT22;4551;53.164;8.210;2023-04-19T01:50:01;7.30;99.90
9033;DHT22;4551;53.164;8.210;2023-04-19T01:52:31;6.80;99.90
9033;DHT22;4551;53.164;8.210;2023-04-19T01:54:59;6.80;99.90
9033;DHT22;4551;53.164;8.210;2023-04-19T01:57:33;6.80;99.90
9033;DHT22;4551;53.164;8.210;2023-04-19T02:00:01;6.70;99.90
9033;DHT22;4551;53.164;8.210;2023-04-19T02:02:29;6.70;99.90
9033;DHT22;4551;53.164;8.210;2023-04-19T02:04:59;6.70;99.90
9033;DHT22;4551;53.164;8.210;2023-04-19T02:07:31;6.70;99.90
9033;DHT22;4551;53.164;8.210;2023-04-19T02:10:01;6.70;99.90
9033;DHT22;4551;53.164;8.210;2023-04-19T02:12:29;6.70;99.90
9033;DHT22;4551;53.164;8.210;2023-04-19T02:14:59;6.70;99.90
9033;DHT22;4551;53.164;8.210;2023-04-19T02:17:27;6.60;99.90
9033;DHT22;4551;53.164;8.210;2023-04-19T02:19:57;6.60;99.90
9033;DHT22;4551;53.164;8.210;2023-04-19T02:22:27;6.60;99.90
9033;DHT22;4551;53.164;8.210;2023-04-19T02:24:56;6.60;99.90
9033;DHT22;4551;53.164;8.210;2023-04-19T02:27:24;6.60;99.90
9033;DHT22;4551;53.164;8.210;2023-04-19T02:29:52;6.50;99.90
9033;DHT22;4551;53.164;8.210;2023-04-19T02:32:20;6.40;99.90
9033;DHT22;4551;53.164;8.210;2023-04-19T02:34:48;6.30;99.90
9033;DHT22;4551;53.164;8.210;2023-04-19T02:37:17;6.40;99.90
9033;DHT22;4551;53.164;8.210;2023-04-19T02:39:45;6.30;99.90
9033;DHT22;4551;53.164;8.210;2023-04-19T02:42:14;6.30;99.90
9033;DHT22;4551;53.164;8.210;2023-04-19T02:44:42;6.20;99.90
9033;DHT22;4551;53.164;8.210;2023-04-19T02:47:10;6.20;99.90
9033;DHT22;4551;53.164;8.210;2023-04-19T02:49:38;6.10;99.90
9033;DHT22;4551;53.164;8.210;2023-04-19T02:52:09;6.00;99.90
9033;DHT22;4551;53.164;8.210;2023-04-19T02:54:40;6.10;99.90
9033;DHT22;4551;53.164;8.210;2023-04-19T02:57:08;6.10;99.90
9033;DHT22;4551;53.164;8.210;2023-04-19T02:59:38;6.10;99.90
9033;DHT22;4551;53.164;8.210;2023-04-19T03:02:06;6.00;99.90
9033;DHT22;4551;53.164;8.210;2023-04-19T03:04:34;6.00;99.90
9033;DHT22;4551;53.164;8.210;2023-04-19T03:07:05;5.90;99.90
9033;DHT22;4551;53.164;8.210;2023-04-19T03:09:33;5.90;99.90
9033;DHT22;4551;53.164;8.210;2023-04-19T03:12:01;5.90;99.90
9033;DHT22;4551;53.164;8.210;2023-04-19T03:14:29;5.90;99.90
9033;DHT22;4551;53.164;8.210;2023-04-19T03:17:00;5.90;99.90
9033;DHT22;4551;53.164;8.210;2023-04-19T03:19:29;5.90;99.90
9033;DHT22;4551;53.164;8.210;2023-04-19T03:21:57;5.90;99.90
9033;DHT22;4551;53.164;8.210;2023-04-19T03:24:28;5.90;99.90
9033;DHT22;4551;53.164;8.210;2023-04-19T03:26:56;5.90;99.90
9033;DHT22;4551;53.164;8.210;2023-04-19T03:29:24;5.90;99.90
9033;DHT22;4551;53.164;8.210;2023-04-19T03:31:52;5.90;99.90
9033;DHT22;4551;53.164;8.210;2023-04-19T03:34:22;5.90;99.90
9033;DHT22;4551;53.164;8.210;2023-04-19T03:36:50;5.80;99.90
9033;DHT22;4551;53.164;8.210;2023-04-19T03:39:18;5.80;99.90
9033;DHT22;4551;53.164;8.210;2023-04-19T03:41:46;5.80;99.90
9033;DHT22;4551;53.164;8.210;2023-04-19T03:44:14;5.80;99.90
9033;DHT22;4551;53.164;8.210;2023-04-19T03:46:42;5.70;99.90
9033;DHT22;4551;53.164;8.210;2023-04-19T03:49:12;5.70;99.90
9033;DHT22;4551;53.164;8.210;2023-04-19T03:51:42;5.70;99.90
9033;DHT22;4551;53.164;8.210;2023-04-19T03:54:10;5.70;99.90
9033;DHT22;4551;53.164;8.210;2023-04-19T03:56:38;5.60;99.90
9033;DHT22;4551;53.164;8.210;2023-04-19T03:59:07;5.60;99.90
9033;DHT22;4551;53.164;8.210;2023-04-19T04:01:35;5.60;99.90
9033;DHT22;4551;53.164;8.210;2023-04-19T04:04:07;5.50;99.90
9033;DHT22;4551;53.164;8.210;2023-04-19T04:06:36;5.60;99.90
9033;DHT22;4551;53.164;8.210;2023-04-19T04:09:05;5.50;99.90
9033;DHT22;4551;53.164;8.210;2023-04-19T04:11:33;5.50;99.90
9033;DHT22;4551;53.164;8.210;2023-04-19T04:14:02;5.50;99.90
9033;DHT22;4551;53.164;8.210;2023-04-19T04:16:30;5.50;99.90
9033;DHT22;4551;53.164;8.210;2023-04-19T04:18:58;5.40;99.90
9033;DHT22;4551;53.164;8.210;2023-04-19T04:21:26;5.40;99.90
9033;DHT22;4551;53.164;8.210;2023-04-19T04:23:56;5.40;99.90
9033;DHT22;4551;53.164;8.210;2023-04-19T04:26:25;5.30;99.90
9033;DHT22;4551;53.164;8.210;2023-04-19T04:28:56;5.30;99.90
9033;DHT22;4551;53.164;8.210;2023-04-19T04:31:24;5.10;99.90
9033;DHT22;4551;53.164;8.210;2023-04-19T04:33:52;5.50;99.90
9033;DHT22;4551;53.164;8.210;2023-04-19T04:36:21;5.10;99.90
9033;DHT22;4551;53.164;8.210;2023-04-19T04:38:49;5.10;99.90
9033;DHT22;4551;53.164;8.210;2023-04-19T04:41:17;5.10;99.90
9033;DHT22;4551;53.164;8.210;2023-04-19T04:43:49;5.00;99.90
9033;DHT22;4551;53.164;8.210;2023-04-19T04:46:37;5.00;99.90
9033;DHT22;4551;53.164;8.210;2023-04-19T04:49:05;5.00;99.90
9033;DHT22;4551;53.164;8.210;2023-04-19T04:51:33;5.10;99.90
9033;DHT22;4551;53.164;8.210;2023-04-19T04:54:03;5.10;99.90
9033;DHT22;4551;53.164;8.210;2023-04-19T04:56:31;5.00;99.90
9033;DHT22;4551;53.164;8.210;2023-04-19T04:59:00;5.10;99.90
9033;DHT22;4551;53.164;8.210;2023-04-19T05:01:28;5.10;99.90
9033;DHT22;4551;53.164;8.210;2023-04-19T05:03:56;5.10;99.90
9033;DHT22;4551;53.164;8.210;2023-04-19T05:06:25;5.10;99.90
9033;DHT22;4551;53.164;8.210;2023-04-19T05:08:53;5.10;99.90
9033;DHT22;4551;53.164;8.210;2023-04-19T05:11:21;5.10;99.90
9033;DHT22;4551;53.164;8.210;2023-04-19T05:13:49;5.10;99.90
9033;DHT22;4551;53.164;8.210;2023-04-19T05:16:26;5.10;99.90
9033;DHT22;4551;53.164;8.210;2023-04-19T05:18:54;5.10;99.90
9033;DHT22;4551;53.164;8.210;2023-04-19T05:21:22;5.10;99.90
9033;DHT22;4551;53.164;8.210;2023-04-19T05:23:50;5.10;99.90
9033;DHT22;4551;53.164;8.210;2023-04-19T05:26:19;5.20;99.90
9033;DHT22;4551;53.164;8.210;2023-04-19T05:28:47;5.20;99.90
9033;DHT22;4551;53.164;8.210;2023-04-19T05:31:15;5.30;99.90
9033;DHT22;4551;53.164;8.210;2023-04-19T05:33:45;5.30;99.90
9033;DHT22;4551;53.164;8.210;2023-04-19T05:36:14;5.30;99.90
9033;DHT22;4551;53.164;8.210;2023-04-19T05:38:42;5.40;99.90
9033;DHT22;4551;53.164;8.210;2023-04-19T05:41:14;5.40;99.90
9033;DHT22;4551;53.164;8.210;2023-04-19T05:43:44;5.50;99.90
9033;DHT22;4551;53.164;8.210;2023-04-19T05:46:15;5.50;99.90
9033;DHT22;4551;53.164;8.210;2023-04-19T05:48:44;5.50;99.90
9033;DHT22;4551;53.164;8.210;2023-04-19T05:51:12;5.60;99.90
9033;DHT22;4551;53.164;8.210;2023-04-19T05:53:43;5.60;99.90
9033;DHT22;4551;53.164;8.210;2023-04-19T05:56:11;5.70;99.90
9033;DHT22;4551;53.164;8.210;2023-04-19T05:58:39;5.80;99.90
9033;DHT22;4551;53.164;8.210;2023-04-19T06:01:08;5.80;99.90
9033;DHT22;4551;53.164;8.210;2023-04-19T06:03:36;5.90;99.90
9033;DHT22;4551;53.164;8.210;2023-04-19T06:06:06;5.90;99.90
9033;DHT22;4551;53.164;8.210;2023-04-19T06:08:34;5.70;99.90
9033;DHT22;4551;53.164;8.210;2023-04-19T06:11:02;6.00;99.90
9033;DHT22;4551;53.164;8.210;2023-04-19T06:13:50;6.00;99.90
9033;DHT22;4551;53.164;8.210;2023-04-19T06:16:18;6.10;99.90
9033;DHT22;4551;53.164;8.210;2023-04-19T06:18:47;6.10;99.90
9033;DHT22;4551;53.164;8.210;2023-04-19T06:21:16;6.20;99.90
9033;DHT22;4551;53.164;8.210;2023-04-19T06:23:44;6.30;99.90
9033;DHT22;4551;53.164;8.210;2023-04-19T06:26:12;6.30;99.90
9033;DHT22;4551;53.164;8.210;2023-04-19T06:28:44;6.30;99.90
9033;DHT22;4551;53.164;8.210;2023-04-19T06:31:12;6.50;99.90
9033;DHT22;4551;53.164;8.210;2023-04-19T06:33:40;6.50;99.90
9033;DHT22;4551;53.164;8.210;2023-04-19T06:36:08;6.50;99.90
9033;DHT22;4551;53.164;8.210;2023-04-19T06:38:38;6.60;99.90
9033;DHT22;4551;53.164;8.210;2023-04-19T06:41:07;6.60;99.90
9033;DHT22;4551;53.164;8.210;2023-04-19T06:43:36;6.80;99.90
9033;DHT22;4551;53.164;8.210;2023-04-19T06:46:08;6.70;99.90
9033;DHT22;4551;53.164;8.210;2023-04-19T06:48:37;6.80;99.90
9033;DHT22;4551;53.164;8.210;2023-04-19T06:51:05;6.80;99.90
9033;DHT22;4551;53.164;8.210;2023-04-19T06:53:33;6.90;99.90
9033;DHT22;4551;53.164;8.210;2023-04-19T06:56:04;7.00;99.90
9033;DHT22;4551;53.164;8.210;2023-04-19T06:58:32;8.20;99.90
9033;DHT22;4551;53.164;8.210;2023-04-19T07:01:02;7.10;99.90
9033;DHT22;4551;53.164;8.210;2023-04-19T07:03:36;7.20;99.90
9033;DHT22;4551;53.164;8.210;2023-04-19T07:06:07;7.20;99.90
9033;DHT22;4551;53.164;8.210;2023-04-19T07:08:35;7.30;99.90
9033;DHT22;4551;53.164;8.210;2023-04-19T07:11:17;7.40;99.90
9033;DHT22;4551;53.164;8.210;2023-04-19T07:13:48;7.40;99.90
9033;DHT22;4551;53.164;8.210;2023-04-19T07:16:17;7.50;99.90
9033;DHT22;4551;53.164;8.210;2023-04-19T07:18:45;7.50;99.90
9033;DHT22;4551;53.164;8.210;2023-04-19T07:21:13;7.60;99.90
9033;DHT22;4551;53.164;8.210;2023-04-19T07:23:41;7.70;99.90
9033;DHT22;4551;53.164;8.210;2023-04-19T07:26:09;7.60;99.90
9033;DHT22;4551;53.164;8.210;2023-04-19T07:28:39;7.80;99.90
9033;DHT22;4551;53.164;8.210;2023-04-19T07:31:13;7.90;99.90
9033;DHT22;4551;53.164;8.210;2023-04-19T07:33:41;8.00;99.90
9033;DHT22;4551;53.164;8.210;2023-04-19T07:36:09;8.00;99.90
9033;DHT22;4551;53.164;8.210;2023-04-19T07:38:37;8.10;99.90
9033;DHT22;4551;53.164;8.210;2023-04-19T07:41:05;8.10;99.90
9033;DHT22;4551;53.164;8.210;2023-04-19T07:43:33;8.20;99.90
9033;DHT22;4551;53.164;8.210;2023-04-19T07:46:09;8.30;99.90
9033;DHT22;4551;53.164;8.210;2023-04-19T07:48:37;8.30;99.90
9033;DHT22;4551;53.164;8.210;2023-04-19T07:51:09;8.40;99.90
9033;DHT22;4551;53.164;8.210;2023-04-19T07:53:47;8.50;99.90
9033;DHT22;4551;53.164;8.210;2023-04-19T07:56:16;8.50;99.90
9033;DHT22;4551;53.164;8.210;2023-04-19T07:58:45;8.60;99.90
9033;DHT22;4551;53.164;8.210;2023-04-19T08:01:35;8.60;99.90
9033;DHT22;4551;53.164;8.210;2023-04-19T08:04:03;8.70;99.90
9033;DHT22;4551;53.164;8.210;2023-04-19T08:06:32;8.90;99.90
9033;DHT22;4551;53.164;8.210;2023-04-19T08:09:00;8.90;99.90
9033;DHT22;4551;53.164;8.210;2023-04-19T08:11:31;9.00;99.90
9033;DHT22;4551;53.164;8.210;2023-04-19T08:13:59;9.10;99.90
9033;DHT22;4551;53.164;8.210;2023-04-19T08:16:48;9.20;99.90
9033;DHT22;4551;53.164;8.210;2023-04-19T08:19:20;9.20;99.90
9033;DHT22;4551;53.164;8.210;2023-04-19T08:21:48;9.30;99.90
9033;DHT22;4551;53.164;8.210;2023-04-19T08:24:16;9.40;99.90
9033;DHT22;4551;53.164;8.210;2023-04-19T08:26:44;9.50;99.90
9033;DHT22;4551;53.164;8.210;2023-04-19T08:29:25;9.50;99.90
9033;DHT22;4551;53.164;8.210;2023-04-19T08:31:55;9.60;99.90
9033;DHT22;4551;53.164;8.210;2023-04-19T08:34:23;9.70;99.90
9033;DHT22;4551;53.164;8.210;2023-04-19T08:36:51;9.70;99.90
9033;DHT22;4551;53.164;8.210;2023-04-19T08:39:30;9.80;99.90
9033;DHT22;4551;53.164;8.210;2023-04-19T08:42:02;9.90;99.90
9033;DHT22;4551;53.164;8.210;2023-04-19T08:44:38;9.90;99.90
9033;DHT22;4551;53.164;8.210;2023-04-19T08:47:28;10.00;99.90
9033;DHT22;4551;53.164;8.210;2023-04-19T08:50:00;10.00;99.90
9033;DHT22;4551;53.164;8.210;2023-04-19T08:52:33;10.10;99.90
9033;DHT22;4551;53.164;8.210;2023-04-19T08:55:17;10.10;99.90
9033;DHT22;4551;53.164;8.210;2023-04-19T08:57:46;10.30;99.90
9033;DHT22;4551;53.164;8.210;2023-04-19T09:00:14;10.40;99.90
9033;DHT22;4551;53.164;8.210;2023-04-19T09:02:52;10.50;99.90
9033;DHT22;4551;53.164;8.210;2023-04-19T09:05:23;10.50;99.90
9033;DHT22;4551;53.164;8.210;2023-04-19T09:07:52;10.60;99.90
9033;DHT22;4551;53.164;8.210;2023-04-19T09:10:20;10.70;99.90
9033;DHT22;4551;53.164;8.210;2023-04-19T09:13:03;10.70;99.90
9033;DHT22;4551;53.164;8.210;2023-04-19T09:15:35;10.70;99.90
9033;DHT22;4551;53.164;8.210;2023-04-19T09:18:05;10.80;99.90
9033;DHT22;4551;53.164;8.210;2023-04-19T09:20:35;10.90;99.90
9033;DHT22;4551;53.164;8.210;2023-04-19T09:23:04;10.90;99.90
9033;DHT22;4551;53.164;8.210;2023-04-19T09:25:35;10.90;99.90
9033;DHT22;4551;53.164;8.210;2023-04-19T09:28:23;11.00;99.90
9033;DHT22;4551;53.164;8.210;2023-04-19T09:30:51;11.10;99.90
9033;DHT22;4551;53.164;8.210;2023-04-19T09:33:33;11.10;99.90
9033;DHT22;4551;53.164;8.210;2023-04-19T09:36:02;11.10;99.90
9033;DHT22;4551;53.164;8.210;2023-04-19T09:38:36;11.20;99.90
9033;DHT22;4551;53.164;8.210;2023-04-19T09:41:15;11.30;99.90
9033;DHT22;4551;53.164;8.210;2023-04-19T09:43:43;11.40;99.90
9033;DHT22;4551;53.164;8.210;2023-04-19T09:46:31;11.40;99.90
9033;DHT22;4551;53.164;8.210;2023-04-19T09:49:15;11.50;99.90
9033;DHT22;4551;53.164;8.210;2023-04-19T09:51:56;11.50;99.90
9033;DHT22;4551;53.164;8.210;2023-04-19T09:54:24;11.60;99.90
9033;DHT22;4551;53.164;8.210;2023-04-19T09:56:54;11.60;99.90
9033;DHT22;4551;53.164;8.210;2023-04-19T09:59:25;11.70;99.90
9033;DHT22;4551;53.164;8.210;2023-04-19T10:01:53;11.70;99.90
9033;DHT22;4551;53.164;8.210;2023-04-19T10:04:24;11.80;99.90
9033;DHT22;4551;53.164;8.210;2023-04-19T10:07:13;11.90;99.90
9033;DHT22;4551;53.164;8.210;2023-04-19T10:09:45;11.90;99.90
9033;DHT22;4551;53.164;8.210;2023-04-19T10:12:16;11.90;99.90
9033;DHT22;4551;53.164;8.210;2023-04-19T10:15:05;12.00;99.90
9033;DHT22;4551;53.164;8.210;2023-04-19T10:17:34;12.00;99.90
9033;DHT22;4551;53.164;8.210;2023-04-19T10:20:04;12.10;99.90
9033;DHT22;4551;53.164;8.210;2023-04-19T10:22:36;12.20;99.90
9033;DHT22;4551;53.164;8.210;2023-04-19T10:25:07;12.20;99.90
9033;DHT22;4551;53.164;8.210;2023-04-19T10:27:36;12.30;99.90
9033;DHT22;4551;53.164;8.210;2023-04-19T10:30:05;12.30;99.90
9033;DHT22;4551;53.164;8.210;2023-04-19T10:32:39;11.70;99.90
9033;DHT22;4551;53.164;8.210;2023-04-19T10:35:09;12.40;99.90
9033;DHT22;4551;53.164;8.210;2023-04-19T10:37:40;12.50;99.90
9033;DHT22;4551;53.164;8.210;2023-04-19T10:40:09;12.60;99.90
9033;DHT22;4551;53.164;8.210;2023-04-19T10:45:36;12.70;99.90
9033;DHT22;4551;53.164;8.210;2023-04-19T10:48:05;12.80;99.90
9033;DHT22;4551;53.164;8.210;2023-04-19T10:56:04;12.90;99.90
9033;DHT22;4551;53.164;8.210;2023-04-19T10:58:39;13.00;99.90
9033;DHT22;4551;53.164;8.210;2023-04-19T11:01:33;13.10;99.90
9033;DHT22;4551;53.164;8.210;2023-04-19T11:04:03;13.20;99.90
9033;DHT22;4551;53.164;8.210;2023-04-19T11:06:32;13.30;99.90
9033;DHT22;4551;53.164;8.210;2023-04-19T11:09:01;13.30;99.90
9033;DHT22;4551;53.164;8.210;2023-04-19T11:11:33;13.40;99.90
9033;DHT22;4551;53.164;8.210;2023-04-19T11:14:02;13.50;99.90
9033;DHT22;4551;53.164;8.210;2023-04-19T11:16:30;13.60;99.90
9033;DHT22;4551;53.164;8.210;2023-04-19T11:19:13;13.70;99.90
9033;DHT22;4551;53.164;8.210;2023-04-19T11:21:43;13.80;99.90
9033;DHT22;4551;53.164;8.210;2023-04-19T11:24:11;13.90;99.90
9033;DHT22;4551;53.164;8.210;2023-04-19T11:26:43;13.90;99.90
9033;DHT22;4551;53.164;8.210;2023-04-19T11:29:19;14.00;99.90
9033;DHT22;4551;53.164;8.210;2023-04-19T11:31:48;14.20;99.90
9033;DHT22;4551;53.164;8.210;2023-04-19T11:34:17;14.20;99.90
9033;DHT22;4551;53.164;8.210;2023-04-19T11:36:49;14.30;99.90
9033;DHT22;4551;53.164;8.210;2023-04-19T11:39:17;14.30;99.90
9033;DHT22;4551;53.164;8.210;2023-04-19T11:41:48;14.30;99.90
9033;DHT22;4551;53.164;8.210;2023-04-19T11:44:16;14.40;99.90
9033;DHT22;4551;53.164;8.210;2023-04-19T11:46:56;14.60;99.90
9033;DHT22;4551;53.164;8.210;2023-04-19T11:49:26;14.70;99.90
9033;DHT22;4551;53.164;8.210;2023-04-19T11:51:55;14.80;99.90
9033;DHT22;4551;53.164;8.210;2023-04-19T11:54:23;14.90;99.90
9033;DHT22;4551;53.164;8.210;2023-04-19T11:57:02;15.00;99.90
9033;DHT22;4551;53.164;8.210;2023-04-19T11:59:31;15.00;99.90
9033;DHT22;4551;53.164;8.210;2023-04-19T12:02:06;15.00;99.90
9033;DHT22;4551;53.164;8.210;2023-04-19T12:04:35;15.00;99.90
9033;DHT22;4551;53.164;8.210;2023-04-19T12:07:04;15.10;99.90
9033;DHT22;4551;53.164;8.210;2023-04-19T12:09:35;15.20;99.90
9033;DHT22;4551;53.164;8.210;2023-04-19T12:12:05;15.30;99.90
9033;DHT22;4551;53.164;8.210;2023-04-19T12:14:34;15.30;99.90
9033;DHT22;4551;53.164;8.210;2023-04-19T12:17:02;15.50;99.90
9033;DHT22;4551;53.164;8.210;2023-04-19T12:19:33;15.60;99.90
9033;DHT22;4551;53.164;8.210;2023-04-19T12:22:07;15.60;99.90
9033;DHT22;4551;53.164;8.210;2023-04-19T12:24:37;15.70;99.90
9033;DHT22;4551;53.164;8.210;2023-04-19T12:27:10;15.80;99.90
9033;DHT22;4551;53.164;8.210;2023-04-19T12:29:38;15.90;99.90
9033;DHT22;4551;53.164;8.210;2023-04-19T12:32:06;16.00;99.90
9033;DHT22;4551;53.164;8.210;2023-04-19T12:34:34;16.10;99.90
9033;DHT22;4551;53.164;8.210;2023-04-19T12:37:03;16.10;98.90
9033;DHT22;4551;53.164;8.210;2023-04-19T12:39:31;16.10;99.90
9033;DHT22;4551;53.164;8.210;2023-04-19T12:41:59;16.20;99.50
9033;DHT22;4551;53.164;8.210;2023-04-19T12:44:29;16.40;99.90
9033;DHT22;4551;53.164;8.210;2023-04-19T12:46:57;16.40;99.60
9033;DHT22;4551;53.164;8.210;2023-04-19T12:49:25;16.70;99.90
9033;DHT22;4551;53.164;8.210;2023-04-19T12:51:55;16.80;99.90
9033;DHT22;4551;53.164;8.210;2023-04-19T12:54:23;16.80;99.50
9033;DHT22;4551;53.164;8.210;2023-04-19T12:56:51;16.80;98.10
9033;DHT22;4551;53.164;8.210;2023-04-19T12:59:19;16.80;99.20
9033;DHT22;4551;53.164;8.210;2023-04-19T13:01:49;17.00;99.50
9033;DHT22;4551;53.164;8.210;2023-04-19T13:04:17;17.20;99.90
9033;DHT22;4551;53.164;8.210;2023-04-19T13:06:46;17.40;99.30
9033;DHT22;4551;53.164;8.210;2023-04-19T13:09:14;17.40;97.30
9033;DHT22;4551;53.164;8.210;2023-04-19T13:11:45;17.50;98.10
9033;DHT22;4551;53.164;8.210;2023-04-19T13:14:16;17.70;98.60
9033;DHT22;4551;53.164;8.210;2023-04-19T13:16:44;17.80;96.90
9033;DHT22;4551;53.164;8.210;2023-04-19T13:19:14;18.00;96.40
9033;DHT22;4551;53.164;8.210;2023-04-19T13:21:42;18.00;97.10
9033;DHT22;4551;53.164;8.210;2023-04-19T13:24:11;18.30;96.90
9033;DHT22;4551;53.164;8.210;2023-04-19T13:26:40;18.40;96.40
9033;DHT22;4551;53.164;8.210;2023-04-19T13:29:08;18.70;96.30
9033;DHT22;4551;53.164;8.210;2023-04-19T13:31:36;18.60;95.30
9033;DHT22;4551;53.164;8.210;2023-04-19T13:34:04;18.90;95.10
9033;DHT22;4551;53.164;8.210;2023-04-19T13:36:33;19.00;94.20
9033;DHT22;4551;53.164;8.210;2023-04-19T13:39:01;19.00;92.90
9033;DHT22;4551;53.164;8.210;2023-04-19T13:41:33;19.10;92.80
9033;DHT22;4551;53.164;8.210;2023-04-19T13:44:01;19.40;92.70
9033;DHT22;4551;53.164;8.210;2023-04-19T13:46:29;19.30;90.70
9033;DHT22;4551;53.164;8.210;2023-04-19T13:48:58;19.50;91.00
9033;DHT22;4551;53.164;8.210;2023-04-19T13:51:26;19.90;91.70
9033;DHT22;4551;53.164;8.210;2023-04-19T13:54:13;20.00;90.60
9033;DHT22;4551;53.164;8.210;2023-04-19T13:56:44;20.70;91.70
9033;DHT22;4551;53.164;8.210;2023-04-19T13:59:12;21.70;91.10
9033;DHT22;4551;53.164;8.210;2023-04-19T14:01:40;22.50;91.20
9033;DHT22;4551;53.164;8.210;2023-04-19T14:04:10;23.30;89.20
9033;DHT22;4551;53.164;8.210;2023-04-19T14:06:38;24.10;91.30
9033;DHT22;4551;53.164;8.210;2023-04-19T14:09:06;25.00;90.30
9033;DHT22;4551;53.164;8.210;2023-04-19T14:11:36;26.20;90.00
9033;DHT22;4551;53.164;8.210;2023-04-19T14:14:06;26.70;84.00
9033;DHT22;4551;53.164;8.210;2023-04-19T14:16:34;27.60;85.70
9033;DHT22;4551;53.164;8.210;2023-04-19T14:19:02;28.00;80.20
9033;DHT22;4551;53.164;8.210;2023-04-19T14:21:30;29.40;81.20
9033;DHT22;4551;53.164;8.210;2023-04-19T14:23:58;30.60;81.50
9033;DHT22;4551;53.164;8.210;2023-04-19T14:26:26;31.10;75.70
9033;DHT22;4551;53.164;8.210;2023-04-19T14:28:56;30.80;68.70
9033;DHT22;4551;53.164;8.210;2023-04-19T14:31:26;31.50;70.70
9033;DHT22;4551;53.164;8.210;2023-04-19T14:33:57;32.20;69.90
9033;DHT22;4551;53.164;8.210;2023-04-19T14:36:25;32.40;64.70
9033;DHT22;4551;53.164;8.210;2023-04-19T14:38:53;31.60;66.00
9033;DHT22;4551;53.164;8.210;2023-04-19T14:41:21;32.10;65.80
9033;DHT22;4551;53.164;8.210;2023-04-19T14:43:50;32.80;66.50
9033;DHT22;4551;53.164;8.210;2023-04-19T14:46:20;33.30;65.20
9033;DHT22;4551;53.164;8.210;2023-04-19T14:48:48;33.70;61.80
9033;DHT22;4551;53.164;8.210;2023-04-19T14:51:16;33.40;62.60
9033;DHT22;4551;53.164;8.210;2023-04-19T14:53:44;30.70;58.30
9033;DHT22;4551;53.164;8.210;2023-04-19T14:56:12;30.40;57.40
9033;DHT22;4551;53.164;8.210;2023-04-19T14:58:40;30.70;57.10
9033;DHT22;4551;53.164;8.210;2023-04-19T15:01:13;30.00;57.90
9033;DHT22;4551;53.164;8.210;2023-04-19T15:03:43;27.80;55.10
9033;DHT22;4551;53.164;8.210;2023-04-19T15:06:12;25.90;57.40
9033;DHT22;4551;53.164;8.210;2023-04-19T15:08:40;25.10;58.60
9033;DHT22;4551;53.164;8.210;2023-04-19T15:11:08;26.50;58.10
9033;DHT22;4551;53.164;8.210;2023-04-19T15:13:36;28.00;57.80
9033;DHT22;4551;53.164;8.210;2023-04-19T15:16:05;28.90;57.90
9033;DHT22;4551;53.164;8.210;2023-04-19T15:18:34;29.80;57.00
9033;DHT22;4551;53.164;8.210;2023-04-19T15:21:06;30.20;57.10
9033;DHT22;4551;53.164;8.210;2023-04-19T15:23:35;29.20;55.40
9033;DHT22;4551;53.164;8.210;2023-04-19T15:26:03;29.70;56.40
9033;DHT22;4551;53.164;8.210;2023-04-19T15:28:32;30.20;55.20
9033;DHT22;4551;53.164;8.210;2023-04-19T15:31:01;29.60;55.60
9033;DHT22;4551;53.164;8.210;2023-04-19T15:33:34;29.90;53.50
9033;DHT22;4551;53.164;8.210;2023-04-19T15:36:03;29.30;54.30
9033;DHT22;4551;53.164;8.210;2023-04-19T15:38:32;29.10;54.20
9033;DHT22;4551;53.164;8.210;2023-04-19T15:41:00;29.70;54.60
9033;DHT22;4551;53.164;8.210;2023-04-19T15:43:28;29.70;53.80
9033;DHT22;4551;53.164;8.210;2023-04-19T15:45:57;29.60;52.70
9033;DHT22;4551;53.164;8.210;2023-04-19T15:48:28;29.50;53.20
9033;DHT22;4551;53.164;8.210;2023-04-19T15:50:56;29.60;53.60
9033;DHT22;4551;53.164;8.210;2023-04-19T15:53:24;29.10;51.70
9033;DHT22;4551;53.164;8.210;2023-04-19T15:55:54;28.50;49.00
9033;DHT22;4551;53.164;8.210;2023-04-19T15:58:22;28.30;50.10
9033;DHT22;4551;53.164;8.210;2023-04-19T16:00:50;28.50;51.70
9033;DHT22;4551;53.164;8.210;2023-04-19T16:03:18;28.70;51.20
9033;DHT22;4551;53.164;8.210;2023-04-19T16:05:52;27.10;50.30
9033;DHT22;4551;53.164;8.210;2023-04-19T16:08:21;27.40;51.30
9033;DHT22;4551;53.164;8.210;2023-04-19T16:10:49;26.80;49.40
9033;DHT22;4551;53.164;8.210;2023-04-19T16:13:19;27.00;50.10
9033;DHT22;4551;53.164;8.210;2023-04-19T16:15:47;26.70;50.20
9033;DHT22;4551;53.164;8.210;2023-04-19T16:18:15;26.30;49.70
9033;DHT22;4551;53.164;8.210;2023-04-19T16:20:43;26.30;50.20
9033;DHT22;4551;53.164;8.210;2023-04-19T16:23:11;26.00;48.70
9033;DHT22;4551;53.164;8.210;2023-04-19T16:25:43;25.90;48.90
9033;DHT22;4551;53.164;8.210;2023-04-19T16:28:11;25.90;49.60
9033;DHT22;4551;53.164;8.210;2023-04-19T16:30:41;24.40;47.30
9033;DHT22;4551;53.164;8.210;2023-04-19T16:33:09;23.80;46.50
9033;DHT22;4551;53.164;8.210;2023-04-19T16:35:37;23.40;48.40